sensor_id;sensor_type;location;lat;lon;timestamp;P1;durP1;ratioP1;P2;durP2;ratioP2
46889;SDS011;32625;51.080;16.970;2024-02-15T00:02:23;15.60;;;9.30;;
46889;SDS011;32625;51.080;16.970;2024-02-15T00:04:50;13.77;;;9.55;;
46889;SDS011;32625;51.080;16.970;2024-02-15T00:07:17;11.68;;;9.15;;
46889;SDS011;32625;51.080;16.970;2024-02-15T00:09:48;15.77;;;10.15;;
46889;SDS011;32625;51.080;16.970;2024-02-15T00:12:16;15.45;;;10.23;;
46889;SDS011;32625;51.080;16.970;2024-02-15T00:14:43;14.48;;;9.43;;
46889;SDS011;32625;51.080;16.970;2024-02-15T00:17:10;12.10;;;8.82;;
46889;SDS011;32625;51.080;16.970;2024-02-15T00:19:38;14.27;;;9.40;;
46889;SDS011;32625;51.080;16.970;2024-02-15T00:22:08;15.48;;;9.23;;
46889;SDS011;32625;51.080;16.970;2024-02-15T00:24:36;16.90;;;10.23;;
46889;SDS011;32625;51.080;16.970;2024-02-15T00:27:04;16.52;;;9.52;;
46889;SDS011;32625;51.080;16.970;2024-02-15T00:29:32;14.68;;;9.68;;
46889;SDS011;32625;51.080;16.970;2024-02-15T00:32:01;13.93;;;9.30;;
46889;SDS011;32625;51.080;16.970;2024-02-15T00:34:31;13.98;;;10.02;;
46889;SDS011;32625;51.080;16.970;2024-02-15T00:36:59;14.60;;;10.23;;
46889;SDS011;32625;51.080;16.970;2024-02-15T00:39:26;15.02;;;10.82;;
46889;SDS011;32625;51.080;16.970;2024-02-15T00:41:53;13.73;;;10.05;;
46889;SDS011;32625;51.080;16.970;2024-02-15T00:44:22;17.52;;;11.15;;
46889;SDS011;32625;51.080;16.970;2024-02-15T00:46:49;15.23;;;10.55;;
46889;SDS011;32625;51.080;16.970;2024-02-15T00:49:16;16.85;;;11.85;;
46889;SDS011;32625;51.080;16.970;2024-02-15T00:51:46;18.92;;;12.63;;
46889;SDS011;32625;51.080;16.970;2024-02-15T00:54:13;15.57;;;11.45;;
46889;SDS011;32625;51.080;16.970;2024-02-15T00:56:40;15.40;;;11.27;;
46889;SDS011;32625;51.080;16.970;2024-02-15T00:59:07;17.85;;;12.15;;
46889;SDS011;32625;51.080;16.970;2024-02-15T01:01:34;14.77;;;12.10;;
46889;SDS011;32625;51.080;16.970;2024-02-15T01:04:04;17.63;;;12.20;;
46889;SDS011;32625;51.080;16.970;2024-02-15T01:06:32;18.17;;;13.30;;
46889;SDS011;32625;51.080;16.970;2024-02-15T01:08:59;15.20;;;12.25;;
46889;SDS011;32625;51.080;16.970;2024-02-15T01:11:30;20.58;;;13.23;;
46889;SDS011;32625;51.080;16.970;2024-02-15T01:14:01;18.08;;;13.07;;
46889;SDS011;32625;51.080;16.970;2024-02-15T01:16:28;19.13;;;12.73;;
46889;SDS011;32625;51.080;16.970;2024-02-15T01:18:55;19.67;;;14.38;;
46889;SDS011;32625;51.080;16.970;2024-02-15T01:21:22;24.02;;;15.48;;
46889;SDS011;32625;51.080;16.970;2024-02-15T01:23:49;21.77;;;15.27;;
46889;SDS011;32625;51.080;16.970;2024-02-15T01:26:17;20.23;;;14.57;;
46889;SDS011;32625;51.080;16.970;2024-02-15T01:28:44;24.90;;;16.60;;
46889;SDS011;32625;51.080;16.970;2024-02-15T01:31:11;23.65;;;17.73;;
46889;SDS011;32625;51.080;16.970;2024-02-15T01:33:39;30.10;;;19.75;;
46889;SDS011;32625;51.080;16.970;2024-02-15T01:36:06;31.13;;;20.63;;
46889;SDS011;32625;51.080;16.970;2024-02-15T01:38:33;30.45;;;20.00;;
46889;SDS011;32625;51.080;16.970;2024-02-15T01:41:00;29.02;;;19.85;;
46889;SDS011;32625;51.080;16.970;2024-02-15T01:43:27;29.98;;;20.52;;
46889;SDS011;32625;51.080;16.970;2024-02-15T01:45:54;29.23;;;18.52;;
46889;SDS011;32625;51.080;16.970;2024-02-15T01:48:21;31.73;;;20.48;;
46889;SDS011;32625;51.080;16.970;2024-02-15T01:50:48;27.83;;;19.35;;
46889;SDS011;32625;51.080;16.970;2024-02-15T01:53:18;31.67;;;21.42;;
46889;SDS011;32625;51.080;16.970;2024-02-15T01:55:45;31.40;;;20.98;;
46889;SDS011;32625;51.080;16.970;2024-02-15T01:58:13;26.45;;;19.13;;
46889;SDS011;32625;51.080;16.970;2024-02-15T02:00:41;29.05;;;20.52;;
46889;SDS011;32625;51.080;16.970;2024-02-15T02:03:08;26.08;;;18.38;;
46889;SDS011;32625;51.080;16.970;2024-02-15T02:05:37;23.73;;;17.90;;
46889;SDS011;32625;51.080;16.970;2024-02-15T02:08:04;22.83;;;17.38;;
46889;SDS011;32625;51.080;16.970;2024-02-15T02:10:38;23.38;;;17.08;;
46889;SDS011;32625;51.080;16.970;2024-02-15T02:13:06;23.15;;;18.08;;
46889;SDS011;32625;51.080;16.970;2024-02-15T02:15:33;23.77;;;16.92;;
46889;SDS011;32625;51.080;16.970;2024-02-15T02:18:00;22.25;;;16.98;;
46889;SDS011;32625;51.080;16.970;2024-02-15T02:20:27;22.33;;;16.35;;
46889;SDS011;32625;51.080;16.970;2024-02-15T02:22:57;23.30;;;15.52;;
46889;SDS011;32625;51.080;16.970;2024-02-15T02:25:34;22.42;;;16.27;;
46889;SDS011;32625;51.080;16.970;2024-02-15T02:28:01;21.60;;;15.88;;
46889;SDS011;32625;51.080;16.970;2024-02-15T02:30:28;22.35;;;15.43;;
46889;SDS011;32625;51.080;16.970;2024-02-15T02:32:56;22.10;;;15.93;;
46889;SDS011;32625;51.080;16.970;2024-02-15T02:35:23;22.88;;;16.45;;
46889;SDS011;32625;51.080;16.970;2024-02-15T02:37:51;21.98;;;16.30;;
46889;SDS011;32625;51.080;16.970;2024-02-15T02:40:21;19.25;;;15.32;;
46889;SDS011;32625;51.080;16.970;2024-02-15T02:45:17;21.67;;;16.75;;
46889;SDS011;32625;51.080;16.970;2024-02-15T02:47:46;22.55;;;16.70;;
46889;SDS011;32625;51.080;16.970;2024-02-15T02:50:15;21.70;;;16.13;;
46889;SDS011;32625;51.080;16.970;2024-02-15T02:52:42;22.88;;;16.42;;
46889;SDS011;32625;51.080;16.970;2024-02-15T02:55:10;20.23;;;15.48;;
46889;SDS011;32625;51.080;16.970;2024-02-15T02:57:38;22.15;;;15.38;;
46889;SDS011;32625;51.080;16.970;2024-02-15T03:00:05;21.92;;;14.98;;
46889;SDS011;32625;51.080;16.970;2024-02-15T03:02:39;19.92;;;15.20;;
46889;SDS011;32625;51.080;16.970;2024-02-15T03:05:07;22.38;;;15.57;;
46889;SDS011;32625;51.080;16.970;2024-02-15T03:07:35;21.02;;;16.00;;
46889;SDS011;32625;51.080;16.970;2024-02-15T03:10:03;18.80;;;14.80;;
46889;SDS011;32625;51.080;16.970;2024-02-15T03:12:31;23.20;;;14.63;;
46889;SDS011;32625;51.080;16.970;2024-02-15T03:14:58;21.58;;;15.00;;
46889;SDS011;32625;51.080;16.970;2024-02-15T03:17:25;22.92;;;14.60;;
46889;SDS011;32625;51.080;16.970;2024-02-15T03:19:52;18.65;;;14.15;;
46889;SDS011;32625;51.080;16.970;2024-02-15T03:22:19;19.05;;;14.40;;
46889;SDS011;32625;51.080;16.970;2024-02-15T03:24:46;19.50;;;14.70;;
46889;SDS011;32625;51.080;16.970;2024-02-15T03:27:13;20.92;;;14.32;;
46889;SDS011;32625;51.080;16.970;2024-02-15T03:29:41;16.75;;;12.70;;
46889;SDS011;32625;51.080;16.970;2024-02-15T03:32:08;19.35;;;14.70;;
46889;SDS011;32625;51.080;16.970;2024-02-15T03:34:37;21.08;;;14.85;;
46889;SDS011;32625;51.080;16.970;2024-02-15T03:37:06;20.92;;;13.77;;
46889;SDS011;32625;51.080;16.970;2024-02-15T03:39:33;17.48;;;13.75;;
46889;SDS011;32625;51.080;16.970;2024-02-15T03:42:00;18.33;;;13.48;;
46889;SDS011;32625;51.080;16.970;2024-02-15T03:44:27;20.42;;;14.35;;
46889;SDS011;32625;51.080;16.970;2024-02-15T03:46:54;18.55;;;13.07;;
46889;SDS011;32625;51.080;16.970;2024-02-15T03:49:24;20.85;;;13.77;;
46889;SDS011;32625;51.080;16.970;2024-02-15T03:51:51;19.38;;;13.30;;
46889;SDS011;32625;51.080;16.970;2024-02-15T03:54:17;17.65;;;12.93;;
46889;SDS011;32625;51.080;16.970;2024-02-15T03:56:50;19.42;;;13.38;;
46889;SDS011;32625;51.080;16.970;2024-02-15T04:01:53;15.95;;;12.50;;
46889;SDS011;32625;51.080;16.970;2024-02-15T04:04:20;14.73;;;11.85;;
46889;SDS011;32625;51.080;16.970;2024-02-15T04:06:49;16.58;;;12.23;;
46889;SDS011;32625;51.080;16.970;2024-02-15T04:09:17;17.85;;;12.32;;
46889;SDS011;32625;51.080;16.970;2024-02-15T04:11:44;18.23;;;12.90;;
46889;SDS011;32625;51.080;16.970;2024-02-15T04:14:20;15.43;;;12.07;;
46889;SDS011;32625;51.080;16.970;2024-02-15T04:16:47;16.95;;;12.18;;
46889;SDS011;32625;51.080;16.970;2024-02-15T04:19:14;14.73;;;12.25;;
46889;SDS011;32625;51.080;16.970;2024-02-15T04:21:41;18.00;;;12.52;;
46889;SDS011;32625;51.080;16.970;2024-02-15T04:24:10;18.63;;;12.73;;
46889;SDS011;32625;51.080;16.970;2024-02-15T04:26:37;16.77;;;11.77;;
46889;SDS011;32625;51.080;16.970;2024-02-15T04:29:05;16.42;;;12.50;;
46889;SDS011;32625;51.080;16.970;2024-02-15T04:31:35;16.63;;;12.43;;
46889;SDS011;32625;51.080;16.970;2024-02-15T04:34:05;19.10;;;13.00;;
46889;SDS011;32625;51.080;16.970;2024-02-15T04:36:33;19.42;;;13.27;;
46889;SDS011;32625;51.080;16.970;2024-02-15T04:39:00;15.85;;;13.25;;
46889;SDS011;32625;51.080;16.970;2024-02-15T04:41:31;18.40;;;13.75;;
46889;SDS011;32625;51.080;16.970;2024-02-15T04:43:58;17.67;;;13.25;;
46889;SDS011;32625;51.080;16.970;2024-02-15T04:46:25;17.08;;;12.13;;
46889;SDS011;32625;51.080;16.970;2024-02-15T04:48:52;17.52;;;12.82;;
46889;SDS011;32625;51.080;16.970;2024-02-15T04:51:20;15.80;;;12.07;;
46889;SDS011;32625;51.080;16.970;2024-02-15T04:53:47;16.42;;;12.25;;
46889;SDS011;32625;51.080;16.970;2024-02-15T04:56:14;17.38;;;13.18;;
46889;SDS011;32625;51.080;16.970;2024-02-15T04:58:42;15.05;;;12.35;;
46889;SDS011;32625;51.080;16.970;2024-02-15T05:01:14;15.82;;;12.20;;
46889;SDS011;32625;51.080;16.970;2024-02-15T05:03:43;14.13;;;12.50;;
46889;SDS011;32625;51.080;16.970;2024-02-15T05:06:10;18.55;;;12.82;;
46889;SDS011;32625;51.080;16.970;2024-02-15T05:08:39;16.55;;;13.70;;
46889;SDS011;32625;51.080;16.970;2024-02-15T05:11:12;17.58;;;13.48;;
46889;SDS011;32625;51.080;16.970;2024-02-15T05:13:45;18.48;;;13.52;;
46889;SDS011;32625;51.080;16.970;2024-02-15T05:16:12;16.42;;;14.63;;
46889;SDS011;32625;51.080;16.970;2024-02-15T05:18:39;16.73;;;14.30;;
46889;SDS011;32625;51.080;16.970;2024-02-15T05:21:06;21.52;;;15.25;;
46889;SDS011;32625;51.080;16.970;2024-02-15T05:23:37;18.85;;;14.40;;
46889;SDS011;32625;51.080;16.970;2024-02-15T05:26:06;15.63;;;12.98;;
46889;SDS011;32625;51.080;16.970;2024-02-15T05:28:34;19.90;;;14.05;;
46889;SDS011;32625;51.080;16.970;2024-02-15T05:33:38;18.48;;;13.73;;
46889;SDS011;32625;51.080;16.970;2024-02-15T05:36:11;18.60;;;13.65;;
46889;SDS011;32625;51.080;16.970;2024-02-15T05:38:39;15.18;;;13.07;;
46889;SDS011;32625;51.080;16.970;2024-02-15T05:41:07;17.02;;;14.43;;
46889;SDS011;32625;51.080;16.970;2024-02-15T05:43:34;16.10;;;13.35;;
46889;SDS011;32625;51.080;16.970;2024-02-15T05:46:04;16.70;;;13.32;;
46889;SDS011;32625;51.080;16.970;2024-02-15T05:48:33;20.30;;;14.10;;
46889;SDS011;32625;51.080;16.970;2024-02-15T05:51:04;19.40;;;13.88;;
46889;SDS011;32625;51.080;16.970;2024-02-15T05:53:32;19.23;;;14.07;;
46889;SDS011;32625;51.080;16.970;2024-02-15T05:56:02;18.58;;;14.15;;
46889;SDS011;32625;51.080;16.970;2024-02-15T05:58:31;18.90;;;14.65;;
46889;SDS011;32625;51.080;16.970;2024-02-15T06:00:59;17.13;;;15.32;;
46889;SDS011;32625;51.080;16.970;2024-02-15T06:03:28;19.98;;;15.15;;
46889;SDS011;32625;51.080;16.970;2024-02-15T06:05:55;20.85;;;16.13;;
46889;SDS011;32625;51.080;16.970;2024-02-15T06:08:26;18.25;;;14.65;;
46889;SDS011;32625;51.080;16.970;2024-02-15T06:10:56;19.80;;;15.32;;
46889;SDS011;32625;51.080;16.970;2024-02-15T06:13:24;21.77;;;16.10;;
46889;SDS011;32625;51.080;16.970;2024-02-15T06:15:52;17.60;;;15.45;;
46889;SDS011;32625;51.080;16.970;2024-02-15T06:20:53;19.35;;;15.70;;
46889;SDS011;32625;51.080;16.970;2024-02-15T06:23:22;17.42;;;14.15;;
46889;SDS011;32625;51.080;16.970;2024-02-15T06:25:51;19.20;;;14.55;;
46889;SDS011;32625;51.080;16.970;2024-02-15T06:28:21;17.95;;;13.88;;
46889;SDS011;32625;51.080;16.970;2024-02-15T06:31:07;18.25;;;14.48;;
46889;SDS011;32625;51.080;16.970;2024-02-15T06:33:53;15.93;;;13.90;;
46889;SDS011;32625;51.080;16.970;2024-02-15T06:36:39;16.13;;;13.35;;
46889;SDS011;32625;51.080;16.970;2024-02-15T06:39:25;19.20;;;14.23;;
46889;SDS011;32625;51.080;16.970;2024-02-15T06:42:09;17.30;;;13.73;;
46889;SDS011;32625;51.080;16.970;2024-02-15T06:44:38;16.77;;;14.70;;
46889;SDS011;32625;51.080;16.970;2024-02-15T06:47:06;16.88;;;13.93;;
46889;SDS011;32625;51.080;16.970;2024-02-15T06:49:39;15.27;;;12.88;;
46889;SDS011;32625;51.080;16.970;2024-02-15T06:52:07;17.73;;;13.55;;
46889;SDS011;32625;51.080;16.970;2024-02-15T06:54:38;15.10;;;13.10;;
46889;SDS011;32625;51.080;16.970;2024-02-15T06:57:06;15.20;;;13.32;;
46889;SDS011;32625;51.080;16.970;2024-02-15T06:59:33;16.23;;;12.68;;
46889;SDS011;32625;51.080;16.970;2024-02-15T07:02:01;14.98;;;13.27;;
46889;SDS011;32625;51.080;16.970;2024-02-15T07:04:31;16.88;;;13.10;;
46889;SDS011;32625;51.080;16.970;2024-02-15T07:06:59;17.30;;;13.07;;
46889;SDS011;32625;51.080;16.970;2024-02-15T07:09:28;14.98;;;13.15;;
46889;SDS011;32625;51.080;16.970;2024-02-15T07:11:56;18.45;;;13.98;;
46889;SDS011;32625;51.080;16.970;2024-02-15T07:14:25;16.75;;;14.07;;
46889;SDS011;32625;51.080;16.970;2024-02-15T07:16:54;18.00;;;13.18;;
46889;SDS011;32625;51.080;16.970;2024-02-15T07:19:25;16.58;;;13.50;;
46889;SDS011;32625;51.080;16.970;2024-02-15T07:21:54;18.23;;;13.82;;
46889;SDS011;32625;51.080;16.970;2024-02-15T07:24:22;18.20;;;14.13;;
46889;SDS011;32625;51.080;16.970;2024-02-15T07:26:54;18.23;;;14.77;;
46889;SDS011;32625;51.080;16.970;2024-02-15T07:29:24;18.45;;;14.52;;
46889;SDS011;32625;51.080;16.970;2024-02-15T07:31:52;16.95;;;13.75;;
46889;SDS011;32625;51.080;16.970;2024-02-15T07:34:20;17.05;;;15.20;;
46889;SDS011;32625;51.080;16.970;2024-02-15T07:36:47;18.05;;;14.40;;
46889;SDS011;32625;51.080;16.970;2024-02-15T07:39:14;16.17;;;13.50;;
46889;SDS011;32625;51.080;16.970;2024-02-15T07:41:51;15.07;;;12.90;;
46889;SDS011;32625;51.080;16.970;2024-02-15T07:44:18;16.15;;;12.82;;
46889;SDS011;32625;51.080;16.970;2024-02-15T07:46:45;13.80;;;11.65;;
46889;SDS011;32625;51.080;16.970;2024-02-15T07:49:13;16.08;;;12.05;;
46889;SDS011;32625;51.080;16.970;2024-02-15T07:51:40;16.98;;;11.18;;
46889;SDS011;32625;51.080;16.970;2024-02-15T07:54:08;19.67;;;12.80;;
46889;SDS011;32625;51.080;16.970;2024-02-15T07:56:35;15.85;;;11.27;;
46889;SDS011;32625;51.080;16.970;2024-02-15T07:59:02;16.00;;;11.73;;
46889;SDS011;32625;51.080;16.970;2024-02-15T08:01:29;16.52;;;13.38;;
46889;SDS011;32625;51.080;16.970;2024-02-15T08:03:57;19.20;;;12.57;;
46889;SDS011;32625;51.080;16.970;2024-02-15T08:06:25;18.25;;;12.82;;
46889;SDS011;32625;51.080;16.970;2024-02-15T08:08:55;18.83;;;12.60;;
46889;SDS011;32625;51.080;16.970;2024-02-15T08:11:22;20.30;;;13.13;;
46889;SDS011;32625;51.080;16.970;2024-02-15T08:13:51;15.23;;;12.93;;
46889;SDS011;32625;51.080;16.970;2024-02-15T08:16:21;18.73;;;13.32;;
46889;SDS011;32625;51.080;16.970;2024-02-15T08:18:49;17.67;;;12.18;;
46889;SDS011;32625;51.080;16.970;2024-02-15T08:21:28;16.42;;;11.80;;
46889;SDS011;32625;51.080;16.970;2024-02-15T08:24:02;16.38;;;12.38;;
46889;SDS011;32625;51.080;16.970;2024-02-15T08:26:33;14.48;;;12.57;;
46889;SDS011;32625;51.080;16.970;2024-02-15T08:29:04;19.88;;;12.63;;
46889;SDS011;32625;51.080;16.970;2024-02-15T08:31:32;14.23;;;11.13;;
46889;SDS011;32625;51.080;16.970;2024-02-15T08:34:02;14.75;;;12.15;;
46889;SDS011;32625;51.080;16.970;2024-02-15T08:36:32;13.82;;;11.10;;
46889;SDS011;32625;51.080;16.970;2024-02-15T08:38:59;13.25;;;11.13;;
46889;SDS011;32625;51.080;16.970;2024-02-15T08:41:27;20.02;;;11.73;;
46889;SDS011;32625;51.080;16.970;2024-02-15T08:43:55;15.95;;;11.70;;
46889;SDS011;32625;51.080;16.970;2024-02-15T08:46:27;15.90;;;11.93;;
46889;SDS011;32625;51.080;16.970;2024-02-15T08:48:54;15.45;;;11.48;;
46889;SDS011;32625;51.080;16.970;2024-02-15T08:51:21;15.70;;;11.10;;
46889;SDS011;32625;51.080;16.970;2024-02-15T08:53:50;15.75;;;11.63;;
46889;SDS011;32625;51.080;16.970;2024-02-15T08:56:18;15.45;;;11.63;;
46889;SDS011;32625;51.080;16.970;2024-02-15T08:58:45;14.95;;;11.15;;
46889;SDS011;32625;51.080;16.970;2024-02-15T09:01:13;15.98;;;11.93;;
46889;SDS011;32625;51.080;16.970;2024-02-15T09:03:40;14.52;;;11.15;;
46889;SDS011;32625;51.080;16.970;2024-02-15T09:06:08;16.95;;;11.13;;
46889;SDS011;32625;51.080;16.970;2024-02-15T09:08:35;16.48;;;12.13;;
46889;SDS011;32625;51.080;16.970;2024-02-15T09:11:02;14.30;;;10.75;;
46889;SDS011;32625;51.080;16.970;2024-02-15T09:13:31;14.27;;;10.98;;
46889;SDS011;32625;51.080;16.970;2024-02-15T09:16:00;14.98;;;10.60;;
46889;SDS011;32625;51.080;16.970;2024-02-15T09:18:27;13.82;;;10.30;;
46889;SDS011;32625;51.080;16.970;2024-02-15T09:20:54;15.38;;;10.55;;
46889;SDS011;32625;51.080;16.970;2024-02-15T09:23:22;15.07;;;11.18;;
46889;SDS011;32625;51.080;16.970;2024-02-15T09:25:50;14.82;;;10.82;;
46889;SDS011;32625;51.080;16.970;2024-02-15T09:28:18;14.95;;;10.55;;
46889;SDS011;32625;51.080;16.970;2024-02-15T09:30:51;13.15;;;9.73;;
46889;SDS011;32625;51.080;16.970;2024-02-15T09:33:21;17.13;;;11.00;;
46889;SDS011;32625;51.080;16.970;2024-02-15T09:35:48;13.15;;;8.90;;
46889;SDS011;32625;51.080;16.970;2024-02-15T09:38:15;12.48;;;10.00;;
46889;SDS011;32625;51.080;16.970;2024-02-15T09:40:48;10.90;;;9.55;;
46889;SDS011;32625;51.080;16.970;2024-02-15T09:43:16;14.20;;;10.57;;
46889;SDS011;32625;51.080;16.970;2024-02-15T09:45:43;14.18;;;9.27;;
46889;SDS011;32625;51.080;16.970;2024-02-15T09:48:10;11.93;;;9.05;;
46889;SDS011;32625;51.080;16.970;2024-02-15T09:50:40;10.90;;;8.35;;
46889;SDS011;32625;51.080;16.970;2024-02-15T09:53:10;13.32;;;9.90;;
46889;SDS011;32625;51.080;16.970;2024-02-15T09:55:39;13.10;;;10.15;;
46889;SDS011;32625;51.080;16.970;2024-02-15T09:58:09;13.10;;;9.50;;
46889;SDS011;32625;51.080;16.970;2024-02-15T10:00:39;12.68;;;9.35;;
46889;SDS011;32625;51.080;16.970;2024-02-15T10:03:06;13.88;;;10.13;;
46889;SDS011;32625;51.080;16.970;2024-02-15T10:05:36;14.20;;;10.00;;
46889;SDS011;32625;51.080;16.970;2024-02-15T10:08:06;15.75;;;10.15;;
46889;SDS011;32625;51.080;16.970;2024-02-15T10:10:34;11.95;;;9.02;;
46889;SDS011;32625;51.080;16.970;2024-02-15T10:13:02;14.40;;;10.30;;
46889;SDS011;32625;51.080;16.970;2024-02-15T10:15:33;14.13;;;10.20;;
46889;SDS011;32625;51.080;16.970;2024-02-15T10:18:03;14.23;;;10.50;;
46889;SDS011;32625;51.080;16.970;2024-02-15T10:20:34;13.77;;;10.73;;
46889;SDS011;32625;51.080;16.970;2024-02-15T10:23:10;15.55;;;10.25;;
46889;SDS011;32625;51.080;16.970;2024-02-15T10:28:07;13.70;;;10.38;;
46889;SDS011;32625;51.080;16.970;2024-02-15T10:30:36;12.35;;;9.55;;
46889;SDS011;32625;51.080;16.970;2024-02-15T10:33:04;12.25;;;8.77;;
46889;SDS011;32625;51.080;16.970;2024-02-15T10:35:32;11.57;;;8.73;;
46889;SDS011;32625;51.080;16.970;2024-02-15T10:38:07;10.18;;;8.48;;
46889;SDS011;32625;51.080;16.970;2024-02-15T10:40:37;14.45;;;8.75;;
46889;SDS011;32625;51.080;16.970;2024-02-15T10:43:04;11.35;;;8.02;;
46889;SDS011;32625;51.080;16.970;2024-02-15T10:45:32;14.10;;;8.13;;
46889;SDS011;32625;51.080;16.970;2024-02-15T10:48:01;12.93;;;8.68;;
46889;SDS011;32625;51.080;16.970;2024-02-15T10:50:28;12.52;;;9.65;;
46889;SDS011;32625;51.080;16.970;2024-02-15T10:52:56;11.48;;;8.70;;
46889;SDS011;32625;51.080;16.970;2024-02-15T10:57:52;10.80;;;8.18;;
46889;SDS011;32625;51.080;16.970;2024-02-15T11:00:23;9.82;;;7.57;;
46889;SDS011;32625;51.080;16.970;2024-02-15T11:03:02;11.57;;;8.82;;
46889;SDS011;32625;51.080;16.970;2024-02-15T11:05:33;11.40;;;10.15;;
46889;SDS011;32625;51.080;16.970;2024-02-15T11:08:05;13.90;;;9.00;;
46889;SDS011;32625;51.080;16.970;2024-02-15T11:10:35;10.55;;;8.88;;
46889;SDS011;32625;51.080;16.970;2024-02-15T11:13:03;12.95;;;8.35;;
46889;SDS011;32625;51.080;16.970;2024-02-15T11:15:41;12.05;;;9.15;;
46889;SDS011;32625;51.080;16.970;2024-02-15T11:18:12;10.43;;;7.85;;
46889;SDS011;32625;51.080;16.970;2024-02-15T11:23:09;10.13;;;7.60;;
46889;SDS011;32625;51.080;16.970;2024-02-15T11:25:41;11.27;;;8.02;;
46889;SDS011;32625;51.080;16.970;2024-02-15T11:30:54;9.40;;;7.38;;
46889;SDS011;32625;51.080;16.970;2024-02-15T11:33:33;13.15;;;7.30;;
46889;SDS011;32625;51.080;16.970;2024-02-15T11:36:09;10.32;;;7.63;;
46889;SDS011;32625;51.080;16.970;2024-02-15T11:38:38;10.88;;;7.72;;
46889;SDS011;32625;51.080;16.970;2024-02-15T11:41:08;11.05;;;7.20;;
46889;SDS011;32625;51.080;16.970;2024-02-15T11:46:17;10.18;;;5.85;;
46889;SDS011;32625;51.080;16.970;2024-02-15T11:48:45;9.65;;;6.25;;
46889;SDS011;32625;51.080;16.970;2024-02-15T11:51:26;5.85;;;4.97;;
46889;SDS011;32625;51.080;16.970;2024-02-15T11:56:52;6.45;;;4.45;;
46889;SDS011;32625;51.080;16.970;2024-02-15T11:59:41;5.32;;;4.50;;
46889;SDS011;32625;51.080;16.970;2024-02-15T12:05:06;7.15;;;4.28;;
46889;SDS011;32625;51.080;16.970;2024-02-15T12:07:59;8.85;;;4.90;;
46889;SDS011;32625;51.080;16.970;2024-02-15T12:10:56;6.50;;;4.30;;
46889;SDS011;32625;51.080;16.970;2024-02-15T12:13:42;8.00;;;4.80;;
46889;SDS011;32625;51.080;16.970;2024-02-15T12:16:28;5.75;;;4.70;;
46889;SDS011;32625;51.080;16.970;2024-02-15T12:19:13;7.30;;;4.95;;
46889;SDS011;32625;51.080;16.970;2024-02-15T12:21:44;7.38;;;4.88;;
46889;SDS011;32625;51.080;16.970;2024-02-15T12:24:11;6.75;;;4.45;;
46889;SDS011;32625;51.080;16.970;2024-02-15T12:26:38;7.28;;;4.80;;
46889;SDS011;32625;51.080;16.970;2024-02-15T12:29:07;8.40;;;4.80;;
46889;SDS011;32625;51.080;16.970;2024-02-15T12:31:37;5.25;;;4.00;;
46889;SDS011;32625;51.080;16.970;2024-02-15T12:34:05;5.78;;;4.13;;
46889;SDS011;32625;51.080;16.970;2024-02-15T12:36:35;8.88;;;5.22;;
46889;SDS011;32625;51.080;16.970;2024-02-15T12:39:05;5.55;;;4.50;;
46889;SDS011;32625;51.080;16.970;2024-02-15T12:41:49;6.35;;;4.65;;
46889;SDS011;32625;51.080;16.970;2024-02-15T12:44:17;5.20;;;4.15;;
46889;SDS011;32625;51.080;16.970;2024-02-15T12:46:54;5.97;;;4.25;;
46889;SDS011;32625;51.080;16.970;2024-02-15T12:51:52;6.90;;;4.28;;
46889;SDS011;32625;51.080;16.970;2024-02-15T12:54:20;6.00;;;4.25;;
46889;SDS011;32625;51.080;16.970;2024-02-15T12:56:48;8.05;;;4.90;;
46889;SDS011;32625;51.080;16.970;2024-02-15T12:59:16;7.82;;;5.30;;
46889;SDS011;32625;51.080;16.970;2024-02-15T13:01:46;7.88;;;4.43;;
46889;SDS011;32625;51.080;16.970;2024-02-15T13:04:25;6.85;;;4.30;;
46889;SDS011;32625;51.080;16.970;2024-02-15T13:06:53;6.40;;;4.32;;
46889;SDS011;32625;51.080;16.970;2024-02-15T13:09:20;7.03;;;4.45;;
46889;SDS011;32625;51.080;16.970;2024-02-15T13:11:49;5.53;;;4.20;;
46889;SDS011;32625;51.080;16.970;2024-02-15T13:14:17;8.38;;;4.45;;
46889;SDS011;32625;51.080;16.970;2024-02-15T13:16:43;6.97;;;4.50;;
46889;SDS011;32625;51.080;16.970;2024-02-15T13:19:13;7.15;;;4.43;;
46889;SDS011;32625;51.080;16.970;2024-02-15T13:21:40;9.73;;;4.47;;
46889;SDS011;32625;51.080;16.970;2024-02-15T13:24:07;6.43;;;4.85;;
46889;SDS011;32625;51.080;16.970;2024-02-15T13:26:36;9.45;;;5.20;;
46889;SDS011;32625;51.080;16.970;2024-02-15T13:29:03;7.97;;;5.70;;
46889;SDS011;32625;51.080;16.970;2024-02-15T13:31:30;8.10;;;5.47;;
46889;SDS011;32625;51.080;16.970;2024-02-15T13:33:57;10.95;;;5.55;;
46889;SDS011;32625;51.080;16.970;2024-02-15T13:36:24;7.03;;;5.05;;
46889;SDS011;32625;51.080;16.970;2024-02-15T13:38:52;9.55;;;5.13;;
46889;SDS011;32625;51.080;16.970;2024-02-15T13:41:19;8.55;;;5.30;;
46889;SDS011;32625;51.080;16.970;2024-02-15T13:43:46;7.47;;;5.38;;
46889;SDS011;32625;51.080;16.970;2024-02-15T13:46:13;7.65;;;5.40;;
46889;SDS011;32625;51.080;16.970;2024-02-15T13:48:40;9.05;;;5.97;;
46889;SDS011;32625;51.080;16.970;2024-02-15T13:51:07;10.50;;;6.50;;
46889;SDS011;32625;51.080;16.970;2024-02-15T13:53:36;9.35;;;6.30;;
46889;SDS011;32625;51.080;16.970;2024-02-15T13:56:03;8.38;;;5.93;;
46889;SDS011;32625;51.080;16.970;2024-02-15T13:58:31;10.60;;;6.03;;
46889;SDS011;32625;51.080;16.970;2024-02-15T14:00:59;9.18;;;6.13;;
46889;SDS011;32625;51.080;16.970;2024-02-15T14:03:30;10.63;;;6.35;;
46889;SDS011;32625;51.080;16.970;2024-02-15T14:05:57;11.32;;;6.68;;
46889;SDS011;32625;51.080;16.970;2024-02-15T14:08:24;10.30;;;6.38;;
46889;SDS011;32625;51.080;16.970;2024-02-15T14:10:52;9.40;;;6.00;;
46889;SDS011;32625;51.080;16.970;2024-02-15T14:13:19;9.32;;;6.32;;
46889;SDS011;32625;51.080;16.970;2024-02-15T14:15:49;10.02;;;5.50;;
46889;SDS011;32625;51.080;16.970;2024-02-15T14:18:16;6.65;;;5.28;;
46889;SDS011;32625;51.080;16.970;2024-02-15T14:20:46;8.65;;;6.05;;
46889;SDS011;32625;51.080;16.970;2024-02-15T14:23:15;9.40;;;6.15;;
46889;SDS011;32625;51.080;16.970;2024-02-15T14:25:42;8.00;;;5.97;;
46889;SDS011;32625;51.080;16.970;2024-02-15T14:28:12;10.93;;;6.47;;
46889;SDS011;32625;51.080;16.970;2024-02-15T14:30:41;8.65;;;5.88;;
46889;SDS011;32625;51.080;16.970;2024-02-15T14:33:27;9.30;;;6.40;;
46889;SDS011;32625;51.080;16.970;2024-02-15T14:35:57;8.95;;;6.03;;
46889;SDS011;32625;51.080;16.970;2024-02-15T14:38:26;7.47;;;6.10;;
46889;SDS011;32625;51.080;16.970;2024-02-15T14:40:53;10.95;;;6.47;;
46889;SDS011;32625;51.080;16.970;2024-02-15T14:43:24;10.65;;;5.50;;
46889;SDS011;32625;51.080;16.970;2024-02-15T14:45:55;11.52;;;5.68;;
46889;SDS011;32625;51.080;16.970;2024-02-15T14:48:23;9.30;;;5.53;;
46889;SDS011;32625;51.080;16.970;2024-02-15T14:50:51;9.55;;;5.38;;
46889;SDS011;32625;51.080;16.970;2024-02-15T14:53:19;8.90;;;5.50;;
46889;SDS011;32625;51.080;16.970;2024-02-15T14:55:47;7.25;;;5.45;;
46889;SDS011;32625;51.080;16.970;2024-02-15T14:58:16;9.23;;;5.50;;
46889;SDS011;32625;51.080;16.970;2024-02-15T15:00:44;9.38;;;5.60;;